createdAt,value
2022-09-25T03:15:51.981Z,56.67
2022-09-25T03:18:20.780Z,49.70
2022-09-25T03:20:48.818Z,51.80
2022-09-25T03:23:17.286Z,50.87
2022-09-25T03:25:49.887Z,52.80
2022-09-25T03:28:19.397Z,48.50
2022-09-25T03:30:59.127Z,59.27
2022-09-25T03:33:28.738Z,54.47
2022-09-25T03:36:05.965Z,55.67
2022-09-25T03:38:34.694Z,53.47
2022-09-25T03:41:03.117Z,48.37
2022-09-25T03:43:33.722Z,52.47
2022-09-25T03:46:03.337Z,51.37
2022-09-25T03:48:31.534Z,49.60
2022-09-25T03:51:00.829Z,50.03
2022-09-25T03:53:31.723Z,51.60
2022-09-25T03:55:59.931Z,52.03
2022-09-25T03:58:27.988Z,46.67
2022-09-25T04:00:57.308Z,56.03
2022-09-25T04:03:28.563Z,55.07
2022-09-25T04:05:57.519Z,50.57
2022-09-25T04:08:27.037Z,43.70
2022-09-25T04:10:56.383Z,44.77
2022-09-25T04:13:25.123Z,48.27
2022-09-25T04:15:53.517Z,45.53
2022-09-25T04:18:21.648Z,44.50
2022-09-25T04:20:51.113Z,48.93
2022-09-25T04:23:19.212Z,50.90
2022-09-25T04:25:47.273Z,47.97
2022-09-25T04:28:15.495Z,50.67
2022-09-25T04:30:43.532Z,52.37
2022-09-25T04:33:29.146Z,47.33
2022-09-25T04:35:58.568Z,45.97
2022-09-25T04:38:26.736Z,51.47
2022-09-25T04:40:54.952Z,44.17
2022-09-25T04:43:23.040Z,48.23
2022-09-25T04:45:51.852Z,43.50
2022-09-25T04:48:20.114Z,51.70
2022-09-25T04:50:51.630Z,47.43
2022-09-25T04:53:21.077Z,45.50
2022-09-25T04:55:49.085Z,47.30
2022-09-25T04:58:17.177Z,49.30
2022-09-25T05:00:45.219Z,48.73
2022-09-25T05:03:13.413Z,45.93
2022-09-25T05:05:41.523Z,50.50
2022-09-25T05:08:12.078Z,46.47
2022-09-25T05:10:42.130Z,42.90
2022-09-25T05:13:12.043Z,45.17
2022-09-25T05:15:40.189Z,43.93
2022-09-25T05:18:13.639Z,48.17
2022-09-25T05:20:41.795Z,41.40
2022-09-25T05:23:09.929Z,44.37
2022-09-25T05:25:38.020Z,40.93
2022-09-25T05:28:07.702Z,49.07
2022-09-25T05:30:38.764Z,43.03
2022-09-25T05:33:07.343Z,39.67
2022-09-25T05:35:36.619Z,47.50
2022-09-25T05:38:06.721Z,40.37
2022-09-25T05:40:34.899Z,38.43
2022-09-25T05:43:03.731Z,40.37
2022-09-25T05:45:33.878Z,38.43
2022-09-25T05:48:03.398Z,32.88
2022-09-25T05:50:33.203Z,37.47
2022-09-25T05:53:02.849Z,35.70
2022-09-25T05:55:31.957Z,36.87
2022-09-25T05:58:03.670Z,37.13
2022-09-25T06:00:33.717Z,34.15
2022-09-25T06:03:02.214Z,33.00
2022-09-25T06:05:30.409Z,31.38
2022-09-25T06:07:58.569Z,31.83
2022-09-25T06:10:27.108Z,33.55
2022-09-25T06:12:58.924Z,31.42
2022-09-25T06:15:28.108Z,30.25
2022-09-25T06:17:58.015Z,26.15
2022-09-25T06:20:26.323Z,24.55
2022-09-25T06:22:54.972Z,23.77
2022-09-25T06:25:23.931Z,25.05
2022-09-25T06:27:54.332Z,25.08
2022-09-25T06:30:23.277Z,21.60
2022-09-25T06:32:59.825Z,24.00
2022-09-25T06:35:29.287Z,23.10
2022-09-25T06:37:59.386Z,23.15
2022-09-25T06:40:29.938Z,22.33
2022-09-25T06:42:59.168Z,25.33
2022-09-25T06:45:30.906Z,21.05
2022-09-25T06:48:04.175Z,21.52
2022-09-25T06:51:00.807Z,26.75
2022-09-25T06:54:03.964Z,18.98
2022-09-25T07:07:36.017Z,16.42
2022-09-25T07:10:07.953Z,15.75
2022-09-25T07:12:41.678Z,15.32
2022-09-25T07:15:15.285Z,19.27
2022-09-25T07:17:59.919Z,13.27
2022-09-25T07:20:28.406Z,13.50
2022-09-25T07:23:04.030Z,14.98
2022-09-25T07:25:35.629Z,14.50
2022-09-25T07:28:07.979Z,14.68
2022-09-25T07:30:38.610Z,15.30
2022-09-25T07:33:15.933Z,18.60
2022-09-25T07:36:00.466Z,18.52
2022-09-25T07:38:39.984Z,14.57
2022-09-25T07:41:20.269Z,17.52
2022-09-25T07:44:01.981Z,14.80
2022-09-25T07:46:44.886Z,11.02
2022-09-25T07:49:13.716Z,10.63
2022-09-25T07:51:42.039Z,11.55
2022-09-25T07:54:11.847Z,10.35
2022-09-25T07:56:46.854Z,11.40
2022-09-25T07:59:26.338Z,9.38
2022-09-25T08:02:01.496Z,12.80
2022-09-25T08:04:34.805Z,11.07
2022-09-25T08:07:03.324Z,9.68
2022-09-25T08:09:38.902Z,10.50
2022-09-25T08:12:09.735Z,11.18
2022-09-25T08:14:43.407Z,9.73
2022-09-25T08:17:13.077Z,11.25
2022-09-25T08:19:45.673Z,8.60
2022-09-25T08:22:18.648Z,8.73
2022-09-25T08:25:06.002Z,9.32
2022-09-25T08:27:41.075Z,8.20
2022-09-25T08:30:13.919Z,7.63
2022-09-25T08:32:49.345Z,10.52
2022-09-25T08:36:15.301Z,10.32
2022-09-25T08:38:18.709Z,9.13
2022-09-25T08:40:53.707Z,7.18
2022-09-25T08:43:25.967Z,7.13
2022-09-25T08:46:26.904Z,7.63
2022-09-25T08:49:14.082Z,6.70
2022-09-25T08:52:00.078Z,6.13
2022-09-25T08:54:31.316Z,5.78
2022-09-25T08:57:12.903Z,7.65
2022-09-25T08:59:44.869Z,7.07
2022-09-25T09:02:18.370Z,5.53
2022-09-25T09:04:51.790Z,5.65
2022-09-25T09:07:27.215Z,6.32
2022-09-25T09:10:06.201Z,8.73
2022-09-25T09:12:39.787Z,4.95
2022-09-25T09:15:19.794Z,5.78
2022-09-25T09:17:49.815Z,6.93
2022-09-25T09:20:22.328Z,6.25
2022-09-25T09:22:53.371Z,7.35
2022-09-25T09:25:38.593Z,6.68
2022-09-25T09:28:30.432Z,5.13
2022-09-25T09:31:10.826Z,5.68
2022-09-25T09:33:50.494Z,5.15
2022-09-25T09:36:40.604Z,4.43
2022-09-25T09:39:25.023Z,6.75
2022-09-25T09:42:05.271Z,4.88
2022-09-25T09:47:56.028Z,4.85
2022-09-25T09:50:41.830Z,6.60
2022-09-25T09:53:26.272Z,4.70
2022-09-25T09:55:59.191Z,4.80
2022-09-25T09:58:45.137Z,4.80
2022-09-25T10:01:39.555Z,4.60
2022-09-25T10:04:10.923Z,5.80
2022-09-25T10:06:45.382Z,4.53
2022-09-25T10:09:18.059Z,4.78
2022-09-25T10:11:53.232Z,8.18
2022-09-25T10:14:37.810Z,5.15
2022-09-25T10:17:11.649Z,6.15
2022-09-25T10:19:50.952Z,5.93
2022-09-25T10:22:26.125Z,5.55
2022-09-25T10:25:11.205Z,4.97
2022-09-25T10:27:46.316Z,3.83
2022-09-25T10:30:22.949Z,5.30
2022-09-25T10:33:01.203Z,4.65
2022-09-25T10:35:49.924Z,5.28
2022-09-25T10:38:35.266Z,5.05
2022-09-25T10:41:07.710Z,5.50
2022-09-25T10:43:53.493Z,3.88
2022-09-25T10:46:43.955Z,6.30
2022-09-25T10:49:37.646Z,4.32
2022-09-25T10:52:08.952Z,4.32
2022-09-25T10:54:44.499Z,3.72
2022-09-25T10:57:18.992Z,5.03
2022-09-25T10:59:50.269Z,5.00
2022-09-25T11:02:35.821Z,5.30
2022-09-25T11:05:05.277Z,5.82
2022-09-25T11:07:35.022Z,3.75
2022-09-25T11:10:03.188Z,5.15
2022-09-25T11:12:31.545Z,4.78
2022-09-25T11:15:09.942Z,3.58
2022-09-25T11:17:40.592Z,4.78
2022-09-25T11:20:27.826Z,4.00
2022-09-25T11:23:17.604Z,3.03
2022-09-25T11:25:54.094Z,5.75
2022-09-25T11:28:30.471Z,5.00
2022-09-25T11:31:03.435Z,3.83
2022-09-25T11:33:43.529Z,3.88
2022-09-25T11:36:16.912Z,5.15
2022-09-25T11:39:06.354Z,4.05
2022-09-25T11:41:41.045Z,4.57
2022-09-25T11:44:20.048Z,3.70
2022-09-25T11:46:56.840Z,3.97
2022-09-25T11:49:28.984Z,3.83
2022-09-25T11:52:23.684Z,3.35
2022-09-25T11:55:43.379Z,4.63
2022-09-25T11:58:30.359Z,5.50
2022-09-25T12:01:05.961Z,5.05
2022-09-25T12:03:53.808Z,5.10
2022-09-25T12:06:44.918Z,5.97
2022-09-25T12:09:27.702Z,3.67
2022-09-25T12:12:04.236Z,4.38
2022-09-25T12:14:42.852Z,4.90
2022-09-25T12:17:18.872Z,3.83
2022-09-25T12:19:56.295Z,5.85
2022-09-25T12:22:34.037Z,4.95
2022-09-25T12:25:07.503Z,3.90
2022-09-25T12:27:57.778Z,6.70
2022-09-25T12:30:41.348Z,5.72
2022-09-25T12:33:20.028Z,6.07
2022-09-25T12:35:53.534Z,5.85
2022-09-25T12:38:33.033Z,7.07
2022-09-25T12:41:10.364Z,5.53
2022-09-25T12:43:49.100Z,5.28
2022-09-25T12:46:31.027Z,5.68
2022-09-25T12:49:08.917Z,5.32
2022-09-25T12:51:42.251Z,6.05
2022-09-25T12:54:24.195Z,7.32
2022-09-25T12:56:59.826Z,8.00
2022-09-25T12:59:36.327Z,6.47
2022-09-25T13:02:12.024Z,9.00
2022-09-25T13:04:56.784Z,6.57
2022-09-25T13:07:33.662Z,6.15
2022-09-25T13:10:04.911Z,6.88
2022-09-25T13:12:38.627Z,6.97
2022-09-25T13:15:13.097Z,6.72
2022-09-25T13:17:41.792Z,7.03
2022-09-25T13:20:47.616Z,6.68
2022-09-25T13:23:17.708Z,5.25
2022-09-25T13:25:48.537Z,6.32
2022-09-25T13:28:22.927Z,5.93
2022-09-25T13:31:16.046Z,6.07
2022-09-25T13:33:48.704Z,5.63
2022-09-25T13:36:36.191Z,6.07
2022-09-25T13:39:24.913Z,7.30
2022-09-25T13:41:56.519Z,5.25
2022-09-25T13:45:14.286Z,6.53
2022-09-25T13:47:55.817Z,6.00
2022-09-25T13:50:36.430Z,6.18
2022-09-25T13:53:24.219Z,5.65
2022-09-25T13:56:46.064Z,4.45
2022-09-25T13:59:26.509Z,5.18
2022-09-25T14:02:37.127Z,5.93
2022-09-25T14:05:08.134Z,5.60
2022-09-25T14:07:36.730Z,5.57
2022-09-25T14:10:10.903Z,8.23
2022-09-25T14:12:44.103Z,5.07
2022-09-25T14:15:23.759Z,5.22
2022-09-25T14:17:54.551Z,6.07
2022-09-25T14:20:33.491Z,7.57
2022-09-25T14:23:06.003Z,5.90
2022-09-25T14:25:36.418Z,9.23
2022-09-25T14:28:16.812Z,6.68
2022-09-25T14:31:06.577Z,8.45
2022-09-25T14:33:51.801Z,6.20
2022-09-25T14:36:35.691Z,5.30
2022-09-25T14:39:25.266Z,5.38
2022-09-25T14:42:06.975Z,5.65
2022-09-25T14:45:02.499Z,7.57
2022-09-25T14:47:36.198Z,6.20
2022-09-25T14:50:05.265Z,5.30
2022-09-25T14:52:37.593Z,6.05
2022-09-25T14:55:16.295Z,5.00
2022-09-25T14:57:44.551Z,5.32
2022-09-25T15:00:18.172Z,5.60
2022-09-25T15:02:48.135Z,5.53
2022-09-25T15:05:29.394Z,5.45
2022-09-25T15:08:02.354Z,5.68
2022-09-25T15:10:36.321Z,6.90
2022-09-25T15:13:09.854Z,7.47
2022-09-25T15:15:40.049Z,6.28
2022-09-25T15:18:14.004Z,5.53
2022-09-25T15:20:48.601Z,6.13
2022-09-25T15:23:21.502Z,5.50
2022-09-25T15:25:52.423Z,5.97
2022-09-25T15:28:23.215Z,5.20
2022-09-25T15:30:57.685Z,6.95
2022-09-25T15:33:29.464Z,6.18
2022-09-25T15:35:58.349Z,5.45
2022-09-25T15:38:32.560Z,7.97
2022-09-25T15:41:01.428Z,7.28
2022-09-25T15:43:32.121Z,7.38
2022-09-25T15:46:28.154Z,6.13
2022-09-25T15:48:58.302Z,5.43
2022-09-25T15:51:30.678Z,5.40
2022-09-25T15:54:02.250Z,6.30
2022-09-25T15:56:32.051Z,6.13
2022-09-25T15:59:03.132Z,6.10
2022-09-25T16:01:50.784Z,5.65
2022-09-25T16:04:39.210Z,6.65
2022-09-25T16:07:24.296Z,5.97
2022-09-25T16:09:55.203Z,6.40
2022-09-25T16:12:29.164Z,5.90
2022-09-25T16:14:58.842Z,7.28
2022-09-25T16:17:34.082Z,7.15
2022-09-25T16:20:05.683Z,5.57
2022-09-25T16:22:42.087Z,7.18
2022-09-25T16:25:27.731Z,7.85
2022-09-25T16:28:04.876Z,5.82
2022-09-25T16:30:40.323Z,6.07
2022-09-25T16:33:24.174Z,7.50
2022-09-25T16:36:13.065Z,9.07
2022-09-25T16:39:13.673Z,5.88
2022-09-25T16:41:53.832Z,5.88
2022-09-25T16:44:47.834Z,9.52
2022-09-25T16:47:23.654Z,7.85
2022-09-25T16:50:06.376Z,11.02
2022-09-25T16:52:45.428Z,8.00
2022-09-25T16:55:30.933Z,13.52
2022-09-25T16:58:04.878Z,12.23
2022-09-25T17:00:33.388Z,16.80
2022-09-25T17:03:02.204Z,20.63
2022-09-25T17:05:36.220Z,30.90
2022-09-25T17:08:17.952Z,27.45
2022-09-25T17:10:48.063Z,35.72
2022-09-25T17:13:26.840Z,19.80
2022-09-25T17:15:57.555Z,8.55
2022-09-25T17:18:25.900Z,7.93
2022-09-25T17:20:55.312Z,9.00
2022-09-25T17:23:25.752Z,7.28
2022-09-25T17:26:00.636Z,8.60
2022-09-25T17:28:32.935Z,7.63
2022-09-25T17:31:02.631Z,9.40
2022-09-25T17:33:33.007Z,13.07
2022-09-25T17:36:03.690Z,11.23
2022-09-25T17:38:34.107Z,25.02
2022-09-25T17:41:08.099Z,27.23
2022-09-25T17:43:43.341Z,28.15
2022-09-25T17:46:12.237Z,22.35
2022-09-25T17:48:42.962Z,25.63
2022-09-25T17:51:22.068Z,27.50
2022-09-25T17:53:52.912Z,60.88
2022-09-25T17:56:21.822Z,19.80
2022-09-25T17:58:54.990Z,18.23
2022-09-25T18:01:27.222Z,21.20
2022-09-25T18:04:00.739Z,27.65
2022-09-25T18:06:45.979Z,18.80
2022-09-25T18:09:29.926Z,14.27
2022-09-25T18:12:04.030Z,20.15
2022-09-25T18:14:53.222Z,22.33
2022-09-25T18:17:24.350Z,14.05
2022-09-25T18:20:14.255Z,11.85
2022-09-25T18:23:04.151Z,9.75
2022-09-25T18:25:46.295Z,12.10
2022-09-25T18:28:22.899Z,11.35
2022-09-25T18:30:53.088Z,11.25
2022-09-25T18:33:23.239Z,11.73
2022-09-25T18:35:54.883Z,12.20
2022-09-25T18:38:23.538Z,18.80
2022-09-25T18:40:52.613Z,15.05
2022-09-25T18:43:43.222Z,35.10
2022-09-25T18:46:21.371Z,32.90
2022-09-25T18:49:02.719Z,14.93
2022-09-25T18:51:57.957Z,14.02
2022-09-25T18:54:32.994Z,14.60
2022-09-25T18:57:07.728Z,10.23
2022-09-25T18:59:50.363Z,11.07
2022-09-25T19:02:33.940Z,8.73
2022-09-25T19:05:13.269Z,9.27
2022-09-25T19:08:03.582Z,9.75
2022-09-25T19:10:53.776Z,11.40
2022-09-25T19:13:33.939Z,12.15
2022-09-25T19:16:06.454Z,9.35
2022-09-25T19:18:45.670Z,16.55
2022-09-25T19:21:51.596Z,18.25
2022-09-25T19:24:25.788Z,13.52
2022-09-25T19:26:57.253Z,27.27
2022-09-25T19:29:25.727Z,14.88
2022-09-25T19:31:54.085Z,12.15
2022-09-25T19:34:25.640Z,19.10
2022-09-25T19:36:54.257Z,16.63
2022-09-25T19:39:28.366Z,14.82
2022-09-25T19:41:56.726Z,11.25
2022-09-25T19:44:25.421Z,12.07
2022-09-25T19:46:53.876Z,11.20
2022-09-25T19:49:23.670Z,12.77
2022-09-25T19:51:58.258Z,11.88
2022-09-25T19:54:29.271Z,12.00
2022-09-25T19:56:57.847Z,13.52
2022-09-25T19:59:26.306Z,13.82
2022-09-25T20:02:01.310Z,16.25
2022-09-25T20:04:40.405Z,12.27
2022-09-25T20:07:08.905Z,16.77
2022-09-25T20:09:40.148Z,14.30
2022-09-25T20:12:10.598Z,15.77
2022-09-25T20:14:39.577Z,20.08
2022-09-25T20:17:10.325Z,16.85
2022-09-25T20:19:40.282Z,17.67
2022-09-25T20:22:10.549Z,16.42
2022-09-25T20:24:38.939Z,18.13
2022-09-25T20:27:08.860Z,16.33
2022-09-25T20:29:38.485Z,18.35
2022-09-25T20:32:08.049Z,17.40
2022-09-25T20:34:39.872Z,24.52
2022-09-25T20:37:10.649Z,18.30
2022-09-25T20:39:40.174Z,21.52
2022-09-25T20:42:09.473Z,21.05
2022-09-25T20:44:41.507Z,19.70
2022-09-25T20:47:10.078Z,26.77
2022-09-25T20:49:39.900Z,25.40
2022-09-25T20:52:10.111Z,23.20
2022-09-25T20:54:41.803Z,24.42
2022-09-25T20:57:10.006Z,26.30
2022-09-25T20:59:38.282Z,31.48
2022-09-25T21:02:07.175Z,33.00
2022-09-25T21:04:35.533Z,27.80
2022-09-25T21:07:05.084Z,29.00
2022-09-25T21:09:33.333Z,31.65
2022-09-25T21:12:05.659Z,31.88
2022-09-25T21:14:34.925Z,26.35
2022-09-25T21:17:03.163Z,26.70
2022-09-25T21:19:31.943Z,26.75
2022-09-25T21:22:00.424Z,28.85
2022-09-25T21:24:34.637Z,30.10
2022-09-25T21:27:03.140Z,30.13
2022-09-25T21:29:33.900Z,29.88
2022-09-25T21:32:06.780Z,33.22
2022-09-25T21:34:35.200Z,35.08
2022-09-25T21:37:03.726Z,31.92
2022-09-25T21:39:35.243Z,34.35
2022-09-25T21:42:05.046Z,37.90
2022-09-25T21:44:35.381Z,40.05
2022-09-25T21:47:06.004Z,41.15
2022-09-25T21:49:34.558Z,37.25
2022-09-25T21:52:03.182Z,33.25
2022-09-25T21:54:33.306Z,37.85
2022-09-25T21:57:01.798Z,45.75
2022-09-25T21:59:30.117Z,44.72
2022-09-25T22:01:58.746Z,49.85
2022-09-25T22:04:27.357Z,43.78
2022-09-25T22:06:57.592Z,43.03
2022-09-25T22:09:27.501Z,39.75
